Time;durP1;ratioP1;P1;durP2;ratioP2;P2;SDS_P1;SDS_P2;PMS_P1;PMS_P2;Temp;Humidity;BMP_temperature;BMP_pressure;BME280_temperature;BME280_humidity;BME280_pressure;Samples;Min_cycle;Max_cycle;Signal;HPM_P1;HPM_P2
2024/01/27 00:00:50;;;;;;;;;;;;;;;7.67;64.74;102472.97;4824204;29;20558;-67
2024/01/27 00:03:54;;;;;;;7.43;2.53;;;;;;;7.67;64.83;102466.00;4823705;29;19924;-67
2024/01/27 00:06:57;;;;;;;;;;;;;;;7.63;65.12;102466.94;4824103;29;20049;-68
2024/01/27 00:10:00;;;;;;;12.93;3.08;;;;;;;7.62;65.29;102464.31;4823651;29;20300;-68
2024/01/27 00:13:03;;;;;;;;;;;;;;;7.49;64.91;102462.72;4824060;29;20516;-68
2024/01/27 00:16:07;;;;;;;10.15;2.83;;;;;;;7.42;65.31;102467.09;4815774;29;19924;-67
2024/01/27 00:19:10;;;;;;;15.35;3.03;;;;;;;7.26;65.81;102468.09;4826852;29;20175;-68
2024/01/27 00:22:13;;;;;;;6.63;2.13;;;;;;;7.14;66.63;102471.63;4826863;29;20061;-68
2024/01/27 00:25:17;;;;;;;11.88;2.72;;;;;;;7.11;66.80;102475.13;4826870;29;20543;-67
2024/01/27 00:28:20;;;;;;;14.57;2.42;;;;;;;7.04;67.32;102481.25;4823811;29;20102;-68
2024/01/27 00:31:23;;;;;;;9.48;2.38;;;;;;;7.05;67.07;102483.00;4826975;29;20115;-67
2024/01/27 00:34:26;;;;;;;10.75;2.53;;;;;;;7.09;67.08;102483.84;4826635;29;20062;-67
2024/01/27 00:37:30;;;;;;;;;;;;;;;7.08;66.96;102482.94;4827067;29;20421;-68
2024/01/27 00:40:33;;;;;;;9.73;2.07;;;;;;;7.08;67.54;102482.09;4826604;29;19977;-67
2024/01/27 00:43:36;;;;;;;;;;;;;;;7.05;67.36;102484.69;4826937;29;20077;-68
2024/01/27 00:46:39;;;;;;;10.40;2.50;;;;;;;6.93;68.33;102485.66;4826726;29;19972;-67
2024/01/27 00:49:43;;;;;;;;;;;;;;;6.71;69.12;102483.16;4826575;29;20101;-67
2024/01/27 00:52:46;;;;;;;13.38;2.30;;;;;;;6.82;68.87;102477.03;4826436;29;19927;-67
2024/01/27 00:55:50;;;;;;;14.27;2.58;;;;;;;6.80;68.97;102481.41;4826268;29;20049;-67
2024/01/27 00:58:53;;;;;;;11.25;2.92;;;;;;;6.74;68.89;102483.16;4815123;29;20171;-67
2024/01/27 01:01:56;;;;;;;10.23;2.08;;;;;;;6.64;69.52;102491.88;4826199;29;20053;-67
2024/01/27 01:05:00;;;;;;;10.23;2.33;;;;;;;6.59;69.41;102493.63;4826239;29;20486;-67
2024/01/27 01:08:04;;;;;;;7.85;1.75;;;;;;;6.48;70.21;102503.22;4826173;29;20059;-67
2024/01/27 01:11:07;;;;;;;;;;;;;;;6.43;70.21;102502.34;4826573;29;20413;-67
2024/01/27 01:14:10;;;;;;;12.87;2.60;;;;;;;6.04;71.22;102505.03;4826065;29;19924;-67
2024/01/27 01:17:13;;;;;;;9.60;2.97;;;;;;;6.15;70.97;102511.94;4826000;29;20413;-68
2024/01/27 01:20:17;;;;;;;9.23;2.60;;;;;;;6.02;70.81;102521.50;4826212;29;20106;-68
2024/01/27 01:23:20;;;;;;;10.00;2.42;;;;;;;6.01;71.18;102519.78;4825992;29;20421;-68
2024/01/27 01:26:27;;;;;;;10.32;2.17;;;;;;;6.01;70.94;102524.97;4814324;29;20044;-68
2024/01/27 01:29:31;;;;;;;14.73;2.90;;;;;;;5.93;71.39;102526.69;4814753;29;20057;-68
2024/01/27 01:32:34;;;;;;;8.77;1.63;;;;;;;5.83;71.26;102526.66;4825738;29;20049;-68
2024/01/27 01:35:38;;;;;;;14.55;2.58;;;;;;;5.81;70.87;102533.59;4825677;29;20045;-68
2024/01/27 01:38:42;;;;;;;10.43;2.17;;;;;;;5.73;71.45;102537.06;4825682;29;20457;-68
2024/01/27 01:41:45;;;;;;;9.43;2.20;;;;;;;5.56;71.90;102543.09;4820043;29;20100;-68
2024/01/27 01:44:48;;;;;;;8.23;1.90;;;;;;;5.35;72.03;102533.56;4808894;29;20550;-68
2024/01/27 01:47:52;;;;;;;;;;;;;;;5.42;72.12;102530.97;4816808;29;20410;-68
2024/01/27 01:50:55;;;;;;;11.57;1.92;;;;;;;5.43;72.57;102530.13;4817176;29;19924;-68
2024/01/27 01:53:59;;;;;;;;;;;;;;;5.35;72.63;102537.88;4817544;29;20054;-68
2024/01/27 01:57:03;;;;;;;12.23;2.30;;;;;;;5.31;72.40;102552.59;4816642;29;19968;-68
2024/01/27 02:00:06;;;;;;;9.50;1.85;;;;;;;5.34;71.97;102533.56;4815763;29;20528;-67
2024/01/27 02:03:15;;;;;;;10.68;2.35;;;;;;;5.27;72.33;102531.84;4806343;29;20062;-68
2024/01/27 02:06:18;;;;;;;;;;;;;;;5.25;72.94;102547.38;4816978;29;20046;-68
2024/01/27 02:09:21;;;;;;;12.77;3.13;;;;;;;5.09;72.63;102543.03;4814875;29;19932;-66
2024/01/27 02:12:25;;;;;;;10.90;3.00;;;;;;;5.16;71.74;102546.50;4815297;29;20573;-67
2024/01/27 02:15:28;;;;;;;;;;;;;;;5.17;71.39;102549.09;4815963;29;20053;-67
2024/01/27 02:18:31;;;;;;;12.20;2.97;;;;;;;5.04;72.07;102552.50;4815869;29;20572;-67
2024/01/27 02:21:34;;;;;;;13.45;3.50;;;;;;;4.97;72.83;102545.56;4816326;29;20045;-66
2024/01/27 02:24:38;;;;;;;8.70;1.80;;;;;;;4.95;72.30;102557.69;4816379;29;20114;-67
2024/01/27 02:27:41;;;;;;;12.27;1.98;;;;;;;4.90;72.21;102555.06;4816298;29;20046;-67
2024/01/27 02:30:44;;;;;;;11.73;2.53;;;;;;;4.80;72.92;102553.28;4814873;29;20054;-67
2024/01/27 02:33:47;;;;;;;;;;;;;;;4.32;74.13;102558.22;4816930;29;20052;-67
2024/01/27 02:36:50;;;;;;;10.13;2.03;;;;;;;4.53;73.94;102551.41;4807244;29;19928;-67
2024/01/27 02:39:54;;;;;;;8.48;1.67;;;;;;;4.31;75.04;102553.91;4816113;29;20061;-67
2024/01/27 02:42:57;;;;;;;;;;;;;;;4.41;74.86;102554.84;4816451;29;20487;-67
2024/01/27 02:46:00;;;;;;;8.93;2.42;;;;;;;4.12;75.31;102552.94;4815503;29;20286;-67
2024/01/27 02:49:04;;;;;;;9.95;2.97;;;;;;;4.33;74.21;102557.34;4811690;29;20127;-68
2024/01/27 02:52:07;;;;;;;;;;;;;;;4.33;74.82;102565.13;4810541;29;20053;-68
2024/01/27 02:55:10;;;;;;;12.20;2.70;;;;;;;4.46;73.99;102572.97;4815877;29;19973;-68
2024/01/27 02:58:13;;;;;;;10.75;2.70;;;;;;;4.43;73.39;102571.22;4815528;29;20103;-68
2024/01/27 03:01:17;;;;;;;;;;;;;;;4.31;73.90;102572.03;4811396;29;20099;-68
2024/01/27 03:04:20;;;;;;;6.80;1.57;;;;;;;4.32;73.86;102571.19;4805791;29;19938;-68
2024/01/27 03:07:23;;;;;;;7.32;2.67;;;;;;;4.17;73.67;102568.47;4805998;29;20093;-68
2024/01/27 03:10:26;;;;;;;11.00;1.77;;;;;;;4.26;73.48;102578.91;4806236;29;20054;-68
2024/01/27 03:13:30;;;;;;;;;;;;;;;4.17;73.89;102573.66;4806476;29;20069;-68
2024/01/27 03:16:33;;;;;;;11.13;3.60;;;;;;;4.03;74.73;102573.56;4805872;29;19924;-68
2024/01/27 03:19:36;;;;;;;11.50;2.50;;;;;;;3.88;73.94;102579.47;4804750;29;20084;-68
2024/01/27 03:22:41;;;;;;;;;;;;;;;3.78;74.73;102582.84;4805900;29;20050;-68
2024/01/27 03:25:44;;;;;;;9.50;2.10;;;;;;;3.91;74.80;102584.69;4805469;29;19966;-68
2024/01/27 03:28:47;;;;;;;6.32;1.35;;;;;;;3.99;74.06;102586.47;4806057;29;20066;-68
2024/01/27 03:31:50;;;;;;;12.20;2.92;;;;;;;4.00;73.74;102586.47;4805287;29;20130;-68
2024/01/27 03:34:54;;;;;;;;;;;;;;;3.92;74.16;102586.44;4805136;29;20107;-68
2024/01/27 03:37:57;;;;;;;10.80;1.58;;;;;;;3.91;73.59;102583.81;4804844;29;19924;-68
2024/01/27 03:41:00;;;;;;;7.50;2.10;;;;;;;3.89;73.55;102589.00;4804596;29;20058;-68
2024/01/27 03:44:03;;;;;;;8.75;1.80;;;;;;;3.74;73.72;102578.50;4805392;29;20501;-68
2024/01/27 03:47:06;;;;;;;;;;;;;;;3.72;74.54;102577.63;4805891;29;20123;-68
2024/01/27 03:50:10;;;;;;;10.65;1.92;;;;;;;3.78;74.21;102577.66;4808875;29;20402;-68
2024/01/27 03:53:13;;;;;;;14.45;2.10;;;;;;;3.76;74.69;102588.84;4809032;29;20053;-68
2024/01/27 03:56:18;;;;;;;8.57;2.53;;;;;;;3.81;74.35;102588.06;4809122;29;20046;-67
2024/01/27 03:59:22;;;;;;;7.20;1.40;;;;;;;3.85;73.39;102599.28;4809288;29;20058;-68
2024/01/27 04:02:25;;;;;;;;;;;;;;;3.68;74.00;102596.56;4809210;29;20467;-67
2024/01/27 04:05:30;;;;;;;10.23;2.47;;;;;;;3.68;73.39;102606.91;4809282;29;19924;-68
2024/01/27 04:08:34;;;;;;;13.95;2.08;;;;;;;3.58;74.18;102612.84;4809079;29;20134;-68
2024/01/27 04:11:37;;;;;;;12.05;2.30;;;;;;;3.54;74.94;102619.69;4809267;29;20087;-68
2024/01/27 04:14:41;;;;;;;7.07;1.70;;;;;;;3.48;74.54;102615.34;4808881;29;20147;-68
2024/01/27 04:17:44;;;;;;;10.35;1.80;;;;;;;3.44;74.59;102617.84;4808922;29;20160;-68
2024/01/27 04:20:48;;;;;;;9.40;1.63;;;;;;;3.50;73.95;102612.75;4808938;29;20084;-68
2024/01/27 04:23:51;;;;;;;7.50;1.50;;;;;;;3.24;74.04;102617.66;4808907;29;20441;-68
2024/01/27 04:26:54;;;;;;;;;;;;;;;3.26;74.34;102614.22;4809257;29;20099;-68
2024/01/27 04:29:58;;;;;;;10.70;1.93;;;;;;;3.23;74.70;102621.09;4808714;29;20012;-68
2024/01/27 04:33:01;;;;;;;12.07;2.60;;;;;;;3.21;74.82;102615.03;4808385;29;20054;-68
2024/01/27 04:36:06;;;;;;;9.40;1.70;;;;;;;3.20;75.02;102611.56;4808425;29;20046;-68
2024/01/27 04:39:10;;;;;;;11.07;1.60;;;;;;;2.97;74.56;102625.94;4808833;29;20062;-68
2024/01/27 04:42:13;;;;;;;9.48;1.58;;;;;;;3.02;75.21;102619.97;4808591;29;20516;-68
2024/01/27 04:45:16;;;;;;;9.15;1.98;;;;;;;3.16;74.51;102624.44;4808542;29;20115;-68
2024/01/27 04:48:19;;;;;;;7.57;1.50;;;;;;;3.18;74.20;102614.97;4797111;29;20416;-69
2024/01/27 04:51:23;;;;;;;;;;;;;;;2.92;74.28;102622.41;4808397;29;20524;-68
2024/01/27 04:54:26;;;;;;;8.80;1.90;;;;;;;2.85;75.29;102618.91;4808447;29;19925;-68
2024/01/27 04:57:29;;;;;;;8.98;2.45;;;;;;;2.96;74.82;102627.63;4807755;29;20177;-68
2024/01/27 05:00:33;;;;;;;;;;;;;;;2.97;74.92;102624.22;4807694;29;20073;-67
2024/01/27 05:03:36;;;;;;;12.80;1.95;;;;;;;3.00;74.59;102633.75;4808383;29;19974;-68
2024/01/27 05:06:45;;;;;;;8.60;1.85;;;;;;;3.06;74.71;102632.91;4808215;29;20066;-68
2024/01/27 05:09:48;;;;;;;7.30;1.77;;;;;;;3.03;75.02;102639.81;4796817;29;20126;-68
2024/01/27 05:12:51;;;;;;;9.50;1.60;;;;;;;2.86;75.18;102636.13;4808082;29;20528;-68
2024/01/27 05:15:54;;;;;;;;;;;;;;;2.92;74.66;102641.38;4808127;29;20123;-68
2024/01/27 05:18:57;;;;;;;14.20;2.00;;;;;;;2.91;74.62;102637.06;4807960;29;19978;-68
2024/01/27 05:22:00;;;;;;;9.45;2.00;;;;;;;2.77;75.29;102636.00;4807274;29;20053;-68
2024/01/27 05:25:04;;;;;;;8.60;1.83;;;;;;;2.70;75.09;102636.75;4807046;29;20100;-68
2024/01/27 05:28:07;;;;;;;11.25;2.85;;;;;;;2.83;75.39;102648.13;4807170;29;20188;-67
2024/01/27 05:31:10;;;;;;;8.07;1.73;;;;;;;2.84;74.92;102642.09;4808122;29;20137;-68
2024/01/27 05:34:14;;;;;;;8.07;2.45;;;;;;;2.91;74.72;102647.41;4821582;29;20065;-67
2024/01/27 05:37:18;;;;;;;12.27;2.47;;;;;;;2.81;74.89;102650.72;4821958;29;20046;-68
2024/01/27 05:40:21;;;;;;;9.18;2.00;;;;;;;2.74;75.60;102649.75;4825549;29;20428;-68
2024/01/27 05:43:24;;;;;;;11.18;4.22;;;;;;;2.73;75.48;102660.06;4824550;29;20527;-68
2024/01/27 05:46:27;;;;;;;13.75;2.38;;;;;;;2.66;75.13;102663.41;4824715;29;20175;-68
2024/01/27 05:49:31;;;;;;;11.82;2.65;;;;;;;2.61;75.57;102659.88;4824677;29;20056;-68
2024/01/27 05:52:35;;;;;;;13.10;2.53;;;;;;;2.66;75.46;102663.41;4825241;29;20110;-68
2024/01/27 05:55:38;;;;;;;;;;;;;;;2.67;75.26;102662.53;4825717;29;20049;-68
2024/01/27 05:58:40;;;;;;;9.02;2.13;;;;;;;2.68;75.20;102674.59;4825408;29;20342;-68
2024/01/27 06:01:44;;;;;;;14.50;2.25;;;;;;;2.72;75.04;102679.00;4825212;29;20531;-68
2024/01/27 06:04:47;;;;;;;;;;;;;;;2.68;74.99;102674.59;4825123;29;20099;-68
2024/01/27 06:07:50;;;;;;;8.63;2.13;;;;;;;2.60;75.63;102681.38;4824637;29;19924;-67
2024/01/27 06:10:53;;;;;;;;;;;;;;;2.56;75.99;102678.75;4824961;29;20111;-68
2024/01/27 06:13:58;;;;;;;12.80;2.83;;;;;;;2.60;76.04;102687.41;4824666;29;19924;-67
2024/01/27 06:17:04;;;;;;;11.73;2.42;;;;;;;2.63;76.29;102692.63;4825039;29;20062;-68
2024/01/27 06:20:08;;;;;;;12.55;2.88;;;;;;;2.68;75.91;102684.94;4825124;29;20099;-68
2024/01/27 06:23:11;;;;;;;9.75;2.30;;;;;;;2.38;75.96;102683.63;4825331;29;20608;-68
2024/01/27 06:26:15;;;;;;;10.38;2.20;;;;;;;2.45;75.69;102684.59;4820912;29;20073;-68
2024/01/27 06:29:18;;;;;;;;;;;;;;;2.45;75.95;102682.00;4821738;29;20548;-68
2024/01/27 06:32:22;;;;;;;9.15;1.92;;;;;;;2.53;75.75;102686.47;4824339;29;20028;-68
2024/01/27 06:35:25;;;;;;;8.43;1.88;;;;;;;2.46;76.18;102688.94;4824646;29;20552;-68
2024/01/27 06:38:28;;;;;;;8.77;2.20;;;;;;;2.41;76.56;102691.41;4824166;29;20111;-68
2024/01/27 06:41:31;;;;;;;;;;;;;;;2.32;76.65;102691.25;4825144;29;20530;-68
2024/01/27 06:44:35;;;;;;;18.88;3.45;;;;;;;2.44;76.43;102699.22;4824778;29;19923;-68
2024/01/27 06:47:38;;;;;;;8.95;1.75;;;;;;;2.21;76.65;102692.81;4824140;29;20048;-68
2024/01/27 06:50:41;;;;;;;8.05;2.38;;;;;;;2.35;76.11;102695.63;4823790;29;20713;-68
2024/01/27 06:53:46;;;;;;;6.88;1.40;;;;;;;2.41;76.47;102686.25;4824598;29;20053;-68
2024/01/27 06:56:49;;;;;;;6.68;1.80;;;;;;;1.86;77.85;102681.03;4824405;29;20409;-68
2024/01/27 06:59:52;;;;;;;6.70;1.85;;;;;;;2.17;77.95;102683.25;4812973;29;20061;-68
2024/01/27 07:02:58;;;;;;;14.43;3.92;;;;;;;1.99;77.75;102676.94;4824068;29;20099;-68
2024/01/27 07:06:03;;;;;;;12.00;2.72;;;;;;;2.15;78.42;102685.84;4822075;29;20051;-68
2024/01/27 07:09:09;;;;;;;7.35;2.17;;;;;;;2.31;77.04;102689.53;4822369;29;20630;-68
2024/01/27 07:12:12;;;;;;;7.75;2.17;;;;;;;2.37;76.77;102679.31;4820048;29;20135;-68
2024/01/27 07:15:16;;;;;;;6.32;1.98;;;;;;;2.42;75.87;102690.56;4821082;29;20106;-68
2024/01/27 07:18:19;;;;;;;8.30;1.70;;;;;;;2.33;75.67;102693.03;4821424;29;20064;-68
2024/01/27 07:21:22;;;;;;;9.77;1.83;;;;;;;2.38;75.65;102698.25;4813961;29;20153;-68
2024/01/27 07:24:26;;;;;;;6.45;2.55;;;;;;;2.40;75.85;102700.03;4813234;29;20086;-68
2024/01/27 07:27:30;;;;;;;9.23;2.42;;;;;;;2.40;76.09;102706.91;4790874;29;20116;-68
2024/01/27 07:30:33;;;;;;;8.10;2.17;;;;;;;2.34;76.16;102710.25;4813135;29;20049;-68
2024/01/27 07:33:38;;;;;;;13.95;2.22;;;;;;;2.41;76.28;102701.75;4813738;29;20521;-69
2024/01/27 07:36:42;;;;;;;11.23;2.15;;;;;;;2.48;75.85;102703.56;4811081;29;20520;-68
2024/01/27 07:39:48;;;;;;;14.98;6.20;;;;;;;2.51;75.92;102706.22;4799429;29;20187;-68
2024/01/27 07:42:54;;;;;;;16.67;5.05;;;;;;;2.49;76.44;102710.50;4792406;29;20065;-68
2024/01/27 07:45:57;;;;;;;36.03;14.32;;;;;;;2.56;75.89;102709.75;4804172;29;20046;-68
2024/01/27 07:49:01;;;;;;;210.90;113.50;;;;;;;2.56;75.82;102709.75;4804159;29;20529;-69
2024/01/27 07:52:04;;;;;;;240.27;94.55;;;;;;;2.60;75.20;102714.97;4804194;29;20525;-69
2024/01/27 07:55:09;;;;;;;231.38;77.93;;;;;;;2.59;75.79;102728.72;4804439;29;20424;-69
2024/01/27 07:58:12;;;;;;;23.73;11.00;;;;;;;2.60;75.73;102712.38;4804329;29;20467;-70
2024/01/27 08:01:16;;;;;;;7.75;2.45;;;;;;;2.56;76.05;102727.81;4804419;29;20103;-66
2024/01/27 08:04:19;;;;;;;7.70;2.05;;;;;;;2.56;76.03;102738.16;4803894;29;20152;-66
2024/01/27 08:07:22;;;;;;;14.45;4.53;;;;;;;2.57;75.65;102736.44;4803501;29;20119;-66
2024/01/27 08:10:25;;;;;;;26.08;12.43;;;;;;;2.45;76.28;102729.34;4804267;29;20050;-65
2024/01/27 08:13:29;;;;;;;18.45;6.53;;;;;;;2.38;77.32;102729.22;4803904;29;20197;-66
2024/01/27 08:16:32;;;;;;;11.05;4.15;;;;;;;2.34;76.67;102728.31;4803837;29;20483;-67
2024/01/27 08:19:35;;;;;;;12.98;5.93;;;;;;;2.27;77.40;102729.06;4803427;29;20117;-66
2024/01/27 08:22:39;;;;;;;12.43;4.50;;;;;;;2.33;77.69;102730.03;4804020;29;20131;-66
2024/01/27 08:25:47;;;;;;;12.23;4.55;;;;;;;2.41;77.66;102737.03;4804144;29;20054;-68
2024/01/27 08:28:51;;;;;;;9.95;4.20;;;;;;;2.49;77.13;102740.59;4804136;29;20464;-68
2024/01/27 08:31:55;;;;;;;10.48;3.50;;;;;;;2.48;77.63;102742.31;4802609;29;20094;-68
2024/01/27 08:34:58;;;;;;;10.32;3.72;;;;;;;2.51;77.67;102744.94;4804482;29;20398;-68
2024/01/27 08:38:03;;;;;;;12.05;3.85;;;;;;;2.54;77.68;102744.13;4807528;29;20062;-68
2024/01/27 08:41:06;;;;;;;17.77;4.55;;;;;;;2.53;77.71;102740.69;4806697;29;20537;-68
2024/01/27 08:44:10;;;;;;;11.27;3.78;;;;;;;2.56;77.10;102748.50;4807846;29;20184;-67
2024/01/27 08:47:13;;;;;;;;;;;;;;;2.51;78.81;102742.38;4807301;29;20130;-68
2024/01/27 08:50:16;;;;;;;10.40;3.20;;;;;;;2.56;79.48;102755.38;4806711;29;19981;-67
2024/01/27 08:53:20;;;;;;;10.65;4.72;;;;;;;2.55;78.55;102762.25;4806921;29;20049;-68
2024/01/27 08:56:23;;;;;;;11.90;3.75;;;;;;;2.54;79.62;102754.47;4806890;29;20054;-68
2024/01/27 08:59:27;;;;;;;;;;;;;;;2.68;79.67;102765.00;4814364;29;20053;-68
2024/01/27 09:02:30;;;;;;;16.37;5.60;;;;;;;2.68;78.80;102762.44;4824905;29;19927;-68
2024/01/27 09:05:33;;;;;;;10.00;4.57;;;;;;;2.76;78.97;102756.56;4824689;29;20049;-68
2024/01/27 09:08:36;;;;;;;13.05;4.53;;;;;;;2.80;78.69;102753.16;4825209;29;20127;-66
2024/01/27 09:11:40;;;;;;;14.18;3.80;;;;;;;2.85;78.84;102753.25;4824920;29;20057;-67
2024/01/27 09:14:43;;;;;;;13.35;3.15;;;;;;;2.85;78.64;102754.97;4824725;29;20057;-67
2024/01/27 09:17:48;;;;;;;11.98;3.28;;;;;;;2.87;78.57;102755.84;4825041;29;20069;-67
2024/01/27 09:20:52;;;;;;;17.20;7.60;;;;;;;2.89;78.42;102757.59;4824691;29;20483;-67
2024/01/27 09:23:56;;;;;;;24.65;11.18;;;;;;;2.83;78.58;102762.69;4824693;29;20103;-67
2024/01/27 09:26:59;;;;;;;19.35;10.75;;;;;;;2.91;79.12;102766.28;4824406;29;20089;-67
2024/01/27 09:30:03;;;;;;;13.88;6.22;;;;;;;2.95;78.94;102765.47;4824453;29;20053;-68
2024/01/27 09:33:06;;;;;;;8.98;3.05;;;;;;;3.02;79.80;102764.69;4824340;29;20049;-68
2024/01/27 09:36:09;;;;;;;10.55;2.53;;;;;;;3.14;79.13;102766.59;4814570;29;20049;-68
2024/01/27 09:39:13;;;;;;;8.40;2.40;;;;;;;3.21;77.79;102759.78;4824520;29;20053;-67
2024/01/27 09:42:20;;;;;;;11.13;2.60;;;;;;;3.22;77.66;102759.84;4812578;29;20148;-68
2024/01/27 09:45:24;;;;;;;5.68;1.58;;;;;;;3.26;77.37;102760.75;4807752;29;20065;-68
2024/01/27 09:48:27;;;;;;;10.88;2.70;;;;;;;3.27;77.58;102772.81;4806044;29;20459;-68
2024/01/27 09:51:32;;;;;;;8.07;2.17;;;;;;;3.31;77.86;102759.06;4806334;29;20066;-67
2024/01/27 09:54:36;;;;;;;9.93;2.33;;;;;;;3.38;78.41;102758.31;4806220;29;20112;-68
2024/01/27 09:57:40;;;;;;;10.63;2.40;;;;;;;3.40;78.58;102754.03;4806245;29;20115;-68
2024/01/27 10:00:45;;;;;;;11.07;2.80;;;;;;;3.50;78.69;102765.34;4806348;29;20050;-67
2024/01/27 10:03:48;;;;;;;8.43;2.08;;;;;;;3.56;78.83;102764.56;4806354;29;20054;-68
2024/01/27 10:06:53;;;;;;;11.27;2.30;;;;;;;3.55;79.11;102760.25;4806054;29;20138;-68
2024/01/27 10:09:56;;;;;;;11.20;2.50;;;;;;;3.58;79.62;102768.06;4806102;29;20138;-68
2024/01/27 10:13:02;;;;;;;12.93;2.42;;;;;;;3.64;79.66;102766.41;4805942;29;20111;-73
2024/01/27 10:16:07;;;;;;;11.52;2.42;;;;;;;3.71;80.43;102755.28;4805543;29;20049;-66
2024/01/27 10:19:20;;;;;;;12.73;2.25;;;;;;;3.52;81.27;102749.88;4806125;29;20196;-67
2024/01/27 10:22:27;;;;;;;8.77;2.33;;;;;;;3.64;81.10;102752.63;4805995;29;20096;-67
2024/01/27 10:25:37;;;;;;;8.05;1.98;;;;;;;3.76;81.39;102739.78;4805806;29;20068;-68
2024/01/27 10:28:42;;;;;;;12.15;2.58;;;;;;;3.93;81.51;102732.25;4805952;29;20061;-67
2024/01/27 10:31:45;;;;;;;6.93;2.25;;;;;;;4.03;80.76;102728.03;4805505;29;20117;-67
2024/01/27 10:35:21;;;;;;;9.05;3.05;;;;;;;4.11;80.98;102723.78;4805936;29;20390;-68
2024/01/27 10:38:35;;;;;;;12.85;2.58;;;;;;;4.21;81.11;102730.78;4794396;29;20066;-68
2024/01/27 10:41:39;;;;;;;15.98;2.90;;;;;;;4.26;81.21;102718.75;4805636;29;20118;-69
2024/01/27 10:44:45;;;;;;;10.93;3.00;;;;;;;4.37;81.74;102704.19;4805257;29;20111;-69
2024/01/27 10:47:51;;;;;;;9.98;2.97;;;;;;;4.49;81.80;102707.72;4805223;29;20107;-69
2024/01/27 10:50:54;;;;;;;10.48;2.45;;;;;;;4.55;81.10;102715.53;4804890;29;20489;-69
2024/01/27 10:54:03;;;;;;;12.18;3.08;;;;;;;4.57;80.83;102703.47;4804920;29;20143;-69
2024/01/27 10:57:07;;;;;;;20.60;7.43;;;;;;;4.57;80.74;102706.91;4804778;29;20057;-66
2024/01/27 11:00:12;;;;;;;15.18;7.80;;;;;;;4.57;80.78;102711.25;4804811;29;20046;-65
2024/01/27 11:03:18;;;;;;;14.38;3.78;;;;;;;4.68;81.33;102725.13;4804729;29;20118;-66
2024/01/27 11:06:22;;;;;;;12.68;4.38;;;;;;;4.70;80.60;102720.84;4804822;29;20049;-66
2024/01/27 11:09:27;;;;;;;11.65;3.60;;;;;;;4.76;80.64;102725.19;4804650;29;20113;-66
2024/01/27 11:12:30;;;;;;;9.27;2.25;;;;;;;4.82;80.94;102718.34;4804557;29;20076;-66
2024/01/27 11:15:34;;;;;;;9.63;2.83;;;;;;;4.87;81.08;102710.56;4804487;29;20129;-67
2024/01/27 11:18:37;;;;;;;;;;;;;;;4.93;80.60;102715.81;4805290;29;20520;-67
2024/01/27 11:26:06;;;;;;;12.60;2.80;;;;;;;5.12;80.28;102703.81;4804456;29;20133;-67
2024/01/27 11:29:21;;;;;;;8.07;1.95;;;;;;;5.03;79.96;102709.81;4804271;29;20057;-67
2024/01/27 11:32:26;;;;;;;9.88;2.25;;;;;;;5.07;79.68;102708.09;4804483;29;20118;-66
2024/01/27 11:35:29;;;;;;;9.27;2.00;;;;;;;5.16;80.04;102700.38;4804172;29;20434;-67
2024/01/27 11:38:37;;;;;;;;;;;;;;;5.28;80.20;102697.84;4805281;29;20641;-67
2024/01/27 11:41:44;;;;;;;13.73;2.28;;;;;;;5.32;79.43;102699.56;4804511;29;20011;-67
2024/01/27 11:44:48;;;;;;;9.27;1.80;;;;;;;5.40;78.88;102696.16;4804343;29;20053;-67
2024/01/27 11:47:51;;;;;;;13.32;2.70;;;;;;;5.33;77.67;102693.53;4804061;29;20074;-67
2024/01/27 11:51:15;;;;;;;;;;;;;;;5.43;78.54;102686.66;4804363;29;20130;-67
2024/01/27 11:54:18;;;;;;;10.32;2.78;;;;;;;5.47;78.50;102695.31;4803971;29;19988;-67
2024/01/27 11:57:21;;;;;;;;;;;;;;;5.47;77.55;102690.13;4804986;29;20049;-67
2024/01/27 12:00:25;;;;;;;11.43;4.03;;;;;;;5.53;76.19;102701.41;4804291;29;19974;-67
2024/01/27 12:03:29;;;;;;;;;;;;;;;5.68;76.50;102686.72;4804586;29;20054;-67
2024/01/27 12:06:32;;;;;;;9.23;2.70;;;;;;;6.04;76.20;102691.16;4804216;29;20016;-67
2024/01/27 12:09:38;;;;;;;10.40;2.00;;;;;;;6.19;74.45;102691.19;4805776;29;20471;-67
2024/01/27 12:12:42;;;;;;;12.20;2.10;;;;;;;6.34;74.05;102687.72;4807500;29;20061;-67
2024/01/27 12:15:45;;;;;;;9.93;2.47;;;;;;;6.46;73.81;102682.50;4807596;29;20054;-68
2024/01/27 12:18:53;;;;;;;13.02;2.55;;;;;;;6.52;72.88;102672.13;4806701;29;20119;-67
2024/01/27 12:21:57;;;;;;;17.20;4.45;;;;;;;6.53;72.18;102657.38;4806878;29;20053;-67
2024/01/27 12:25:13;;;;;;;15.82;3.70;;;;;;;6.63;72.83;102648.69;4806956;29;20143;-67
2024/01/27 12:28:18;;;;;;;8.43;1.80;;;;;;;6.64;72.06;102658.25;4809774;29;20054;-67
2024/01/27 12:31:22;;;;;;;11.13;2.17;;;;;;;6.58;71.95;102653.06;4824495;29;20530;-67
2024/01/27 12:34:25;;;;;;;7.32;1.88;;;;;;;6.44;71.10;102659.97;4817780;29;20409;-67
2024/01/27 12:37:29;;;;;;;;;;;;;;;6.12;71.56;102653.06;4807758;29;20070;-67
2024/01/27 12:40:31;;;;;;;17.98;4.43;;;;;;;6.20;71.87;102659.16;4807183;29;19944;-68
2024/01/27 12:43:35;;;;;;;11.77;5.40;;;;;;;6.25;71.84;102647.03;4807267;29;20422;-64
2024/01/27 12:50:24;;;;;;;12.13;3.20;;;;;;;6.15;71.77;102647.00;4790469;29;20149;-67
2024/01/27 12:53:27;;;;;;;15.90;4.22;;;;;;;6.22;72.25;102647.03;4807220;29;20057;-67
2024/01/27 12:56:30;;;;;;;;;;;;;;;6.27;72.17;102647.88;4807230;29;20077;-68
2024/01/27 12:59:33;;;;;;;12.88;1.88;;;;;;;6.22;71.55;102638.34;4807341;29;20299;-67
2024/01/27 13:02:39;;;;;;;8.15;1.88;;;;;;;6.19;71.47;102636.63;4807046;29;20072;-67
2024/01/27 13:05:42;;;;;;;10.90;4.30;;;;;;;6.22;71.99;102639.22;4806935;29;20049;-66
2024/01/27 13:08:46;;;;;;;;;;;;;;;6.23;71.31;102640.97;4807469;29;20046;-67
2024/01/27 13:11:50;;;;;;;10.48;1.98;;;;;;;6.22;70.99;102633.16;4806684;29;20414;-67
2024/01/27 13:14:55;;;;;;;8.27;1.73;;;;;;;6.20;71.00;102627.97;4806619;29;20085;-67
2024/01/27 13:17:58;;;;;;;8.07;1.83;;;;;;;6.22;71.33;102626.25;4806804;29;20057;-67
2024/01/27 13:21:01;;;;;;;;;;;;;;;6.24;71.58;102619.28;4806570;29;20057;-67
2024/01/27 13:24:06;;;;;;;5.95;1.60;;;;;;;6.25;71.47;102605.47;4805949;29;19924;-68
2024/01/27 13:27:11;;;;;;;8.65;2.05;;;;;;;6.29;71.27;102611.53;4806954;29;20421;-69
2024/01/27 13:30:14;;;;;;;14.63;2.72;;;;;;;6.28;70.87;102613.22;4808018;29;20050;-65
2024/01/27 13:33:20;;;;;;;;;;;;;;;6.27;70.95;102598.50;4807093;29;20053;-67
2024/01/27 13:36:27;;;;;;;10.68;1.95;;;;;;;6.29;71.44;102599.38;4797135;29;19944;-66
2024/01/27 13:39:32;;;;;;;12.55;2.67;;;;;;;6.34;71.02;102611.50;4806504;29;20070;-66
2024/01/27 13:42:36;;;;;;;9.32;2.08;;;;;;;6.31;70.92;102609.75;4795131;29;20046;-67
2024/01/27 13:45:40;;;;;;;10.15;4.05;;;;;;;6.34;70.95;102595.91;4806064;29;20073;-67
2024/01/27 13:48:44;;;;;;;14.55;4.03;;;;;;;6.36;71.24;102599.38;4806359;29;20057;-68
2024/01/27 13:51:47;;;;;;;12.85;4.05;;;;;;;6.36;71.13;102596.78;4806127;29;20488;-66
2024/01/27 13:54:50;;;;;;;;;;;;;;;6.37;71.34;102596.75;4806470;29;20058;-66
2024/01/27 13:57:53;;;;;;;9.75;3.35;;;;;;;6.35;70.99;102597.63;4805951;29;19927;-66
2024/01/27 14:00:56;;;;;;;9.98;3.05;;;;;;;6.34;71.42;102608.91;4805819;29;20497;-67
2024/01/27 14:04:00;;;;;;;11.50;2.35;;;;;;;6.36;71.33;102608.03;4805905;29;20375;-67
2024/01/27 14:07:06;;;;;;;;;;;;;;;6.37;71.44;102595.91;4806603;29;20057;-68
2024/01/27 14:10:13;;;;;;;7.15;2.03;;;;;;;6.44;71.71;102597.63;4806201;29;20313;-67
2024/01/27 14:13:17;;;;;;;10.95;1.80;;;;;;;6.50;71.72;102595.00;4806206;29;20081;-67
2024/01/27 14:16:20;;;;;;;8.82;1.90;;;;;;;6.58;71.51;102595.00;4794725;29;20053;-68
2024/01/27 14:19:24;;;;;;;10.13;2.50;;;;;;;6.64;71.88;102595.84;4805817;29;20045;-68
2024/01/27 14:22:27;;;;;;;15.60;4.15;;;;;;;6.68;71.11;102596.72;4806002;29;20466;-68
2024/01/27 14:25:31;;;;;;;10.70;2.95;;;;;;;6.66;70.25;102603.63;4805086;29;20071;-68
2024/01/27 14:28:35;;;;;;;10.25;2.25;;;;;;;6.60;70.63;102598.44;4805682;29;20118;-68
2024/01/27 14:31:40;;;;;;;8.90;2.47;;;;;;;6.56;71.12;102591.53;4806466;29;20058;-68
2024/01/27 14:34:43;;;;;;;12.60;2.28;;;;;;;6.51;70.88;102588.97;4805932;29;20045;-68
2024/01/27 14:37:47;;;;;;;;;;;;;;;6.52;71.44;102581.16;4805937;29;20197;-68
2024/01/27 14:40:52;;;;;;;5.97;1.55;;;;;;;6.52;70.95;102575.09;4803510;29;20016;-68